Thunder radar more information blitzortung!


Radar de pluja more information rain snow radar


Visita la nostra xarxa de llocs de meteo:

Template documentation
and downloads

And another site



No particular awareness of the weather is required.    There are no Weather-warnings

Pagina Historial Weather Underground text

Diari Resum Desembre 9, 2017 Unitats:  Tant    Imperial   Mètric
« Previous Dia
SegĂźent Dia »
Diari Setmana Mensual Anual Personalitzada
  Maxima: Minima: Media:
Temperatura: 52 °F /  11.1 °C 35.2 °F /  1.8 °C 45.1 °F /  7.3 °C
Punt de rosada: 35.6 °F /  2.0 °C 27.1 °F /  -2.7 °C 32.4 °F /  0.2 °C
Humitat: 72 % 53 % 61 %
Wind Speed: 8.1 mph /  13.0 km/h - 2.2 mph /  3.6 km/h
RĂ fegues de vent: 8.1 mph /  13.0 km/h - -
Vent:- - SE
Pression baro: 30.2 in /  1022.9 hPa 30.1 in /  1018.8 hPa -
Precipitacions: 0 in /  0.0 mm    
Historical Graphs
 
 
Dades de taula per Desembre 9, 2017
Temps Temperatura Punt de rosada Pression baro Vent Wind Speed RĂ fegues de vent Humitat Rainfall Rate (Hourly)
00:03 39.6 °F /  4.2 °C 29.8 °F /  -1.2 °C 30.1 in /  1019.9 hPa NW 1.6 mph /  2.6 km/h   68 % 0 in /  0.0 mm
00:10 36.7 °F /  2.6 °C 28.6 °F /  -1.9 °C 30.1 in /  1019.9 hPa Calm     72 % 0 in /  0.0 mm
00:20 36.3 °F /  2.4 °C 27.9 °F /  -2.3 °C 30.1 in /  1019.9 hPa West 1 mph /  1.6 km/h 2 mph /  3.2 km/h 71 % 0 in /  0.0 mm
00:30 36.5 °F /  2.5 °C 28.2 °F /  -2.1 °C 30.1 in /  1019.9 hPa Calm   2 mph /  3.2 km/h 72 % 0 in /  0.0 mm
00:40 36.5 °F /  2.5 °C 28.2 °F /  -2.1 °C 30.1 in /  1019.9 hPa Calm   1 mph /  1.6 km/h 72 % 0 in /  0.0 mm
00:50 36.5 °F /  2.5 °C 28.2 °F /  -2.1 °C 30.1 in /  1019.9 hPa West 1 mph /  1.6 km/h 2 mph /  3.2 km/h 72 % 0 in /  0.0 mm
01:00 36.5 °F /  2.5 °C 28.2 °F /  -2.1 °C 30.1 in /  1019.9 hPa NW 1 mph /  1.6 km/h 2 mph /  3.2 km/h 72 % 0 in /  0.0 mm
01:10 36.1 °F /  2.3 °C 28 °F /  -2.2 °C 30.1 in /  1019.9 hPa North 1 mph /  1.6 km/h 2 mph /  3.2 km/h 72 % 0 in /  0.0 mm
01:20 36 °F /  2.2 °C 27.9 °F /  -2.3 °C 30.1 in /  1019.9 hPa Calm   1 mph /  1.6 km/h 72 % 0 in /  0.0 mm
01:30 36 °F /  2.2 °C 27.9 °F /  -2.3 °C 30.1 in /  1019.9 hPa North 1 mph /  1.6 km/h 1 mph /  1.6 km/h 72 % 0 in /  0.0 mm
01:40 35.6 °F /  2.0 °C 27.5 °F /  -2.5 °C 30.1 in /  1019.9 hPa NW 1 mph /  1.6 km/h 2 mph /  3.2 km/h 72 % 0 in /  0.0 mm
01:50 35.8 °F /  2.1 °C 27.7 °F /  -2.4 °C 30.2 in /  1020.9 hPa NW 2 mph /  3.2 km/h 2 mph /  3.2 km/h 72 % 0 in /  0.0 mm
02:00 35.6 °F /  2.0 °C 27.5 °F /  -2.5 °C 30.2 in /  1020.9 hPa Calm   2 mph /  3.2 km/h 72 % 0 in /  0.0 mm
02:10 35.2 °F /  1.8 °C 27.1 °F /  -2.7 °C 30.2 in /  1020.9 hPa NW 1 mph /  1.6 km/h 1 mph /  1.6 km/h 72 % 0 in /  0.0 mm
02:20 35.6 °F /  2.0 °C 27.5 °F /  -2.5 °C 30.2 in /  1021.9 hPa NW 1 mph /  1.6 km/h 2 mph /  3.2 km/h 72 % 0 in /  0.0 mm
02:30 35.6 °F /  2.0 °C 27.5 °F /  -2.5 °C 30.2 in /  1021.9 hPa NNE 1 mph /  1.6 km/h 3 mph /  4.8 km/h 72 % 0 in /  0.0 mm
02:50 36.1 °F /  2.3 °C 28 °F /  -2.2 °C 30.2 in /  1021.9 hPa NNW 1 mph /  1.6 km/h 4 mph /  6.4 km/h 72 % 0 in /  0.0 mm
03:10 36.7 °F /  2.6 °C 28.6 °F /  -1.9 °C 30.2 in /  1021.9 hPa Calm   1 mph /  1.6 km/h 72 % 0 in /  0.0 mm
03:20 38.1 °F /  3.4 °C 29.8 °F /  -1.2 °C 30.2 in /  1021.9 hPa NNE 1 mph /  1.6 km/h 3 mph /  4.8 km/h 72 % 0 in /  0.0 mm
09:23 38.7 °F /  3.7 °C 30.4 °F /  -0.9 °C 30.2 in /  1021.9 hPa NNE 1.4 mph /  2.3 km/h 1.4 mph /  2.3 km/h 72 % 0 in /  0.0 mm
09:25 39 °F /  3.9 °C 30.7 °F /  -0.7 °C 30.2 in /  1021.9 hPa NNE 3.5 mph /  5.6 km/h 3.5 mph /  5.6 km/h 72 % 0 in /  0.0 mm
09:40 40.1 °F /  4.5 °C 31.1 °F /  -0.5 °C 30.2 in /  1021.9 hPa WSW 4.6 mph /  7.4 km/h 4.6 mph /  7.4 km/h 70 % 0 in /  0.0 mm
09:50 41.5 °F /  5.3 °C 32.5 °F /  0.3 °C 30.2 in /  1020.9 hPa South 2.3 mph /  3.7 km/h 2.3 mph /  3.7 km/h 70 % 0 in /  0.0 mm
09:55 42.3 °F /  5.7 °C 32.7 °F /  0.4 °C 30.2 in /  1020.9 hPa ENE 1.6 mph /  2.6 km/h 1.6 mph /  2.6 km/h 69 % 0 in /  0.0 mm
10:05 42.4 °F /  5.8 °C 32.5 °F /  0.3 °C 30.2 in /  1021.9 hPa WNW 2.3 mph /  3.7 km/h 2.3 mph /  3.7 km/h 68 % 0 in /  0.0 mm
10:15 42.8 °F /  6.0 °C 32.5 °F /  0.3 °C 30.2 in /  1021.9 hPa ENE 2 mph /  3.2 km/h 2 mph /  3.2 km/h 67 % 0 in /  0.0 mm
10:20 43 °F /  6.1 °C 32.7 °F /  0.4 °C 30.2 in /  1021.9 hPa NNW 4.6 mph /  7.4 km/h 4.6 mph /  7.4 km/h 67 % 0 in /  0.0 mm
10:25 43.3 °F /  6.3 °C 33.1 °F /  0.6 °C 30.2 in /  1021.9 hPa ENE 3.5 mph /  5.6 km/h 3.5 mph /  5.6 km/h 67 % 0 in /  0.0 mm
10:30 43.7 °F /  6.5 °C 33.1 °F /  0.6 °C 30.2 in /  1022.9 hPa NE 3.5 mph /  5.6 km/h 3.5 mph /  5.6 km/h 66 % 0 in /  0.0 mm
10:40 44.4 °F /  6.9 °C 33.4 °F /  0.8 °C 30.2 in /  1022.9 hPa East 2.3 mph /  3.7 km/h 2.3 mph /  3.7 km/h 65 % 0 in /  0.0 mm
10:45 43.5 °F /  6.4 °C 32.5 °F /  0.3 °C 30.2 in /  1022.9 hPa NNE 5.8 mph /  9.3 km/h 5.8 mph /  9.3 km/h 65 % 0 in /  0.0 mm
10:55 43.7 °F /  6.5 °C 32.4 °F /  0.2 °C 30.2 in /  1022.9 hPa NNE 3.5 mph /  5.6 km/h 3.5 mph /  5.6 km/h 64 % 0 in /  0.0 mm
11:00 44.1 °F /  6.7 °C 32.7 °F /  0.4 °C 30.2 in /  1022.9 hPa NNE 2.9 mph /  4.7 km/h 2.9 mph /  4.7 km/h 64 % 0 in /  0.0 mm
11:05 44.1 °F /  6.7 °C 32.7 °F /  0.4 °C 30.2 in /  1022.9 hPa WSW 3.5 mph /  5.6 km/h 3.5 mph /  5.6 km/h 64 % 0 in /  0.0 mm
11:10 44.2 °F /  6.8 °C 32.4 °F /  0.2 °C 30.2 in /  1022.9 hPa NNE 2.3 mph /  3.7 km/h 2.3 mph /  3.7 km/h 63 % 0 in /  0.0 mm
11:20 44.6 °F /  7.0 °C 32.7 °F /  0.4 °C 30.2 in /  1022.9 hPa ENE 3.6 mph /  5.8 km/h 3.6 mph /  5.8 km/h 63 % 0 in /  0.0 mm
11:26 44.6 °F /  7.0 °C 32.7 °F /  0.4 °C 30.2 in /  1022.9 hPa NNE 3.5 mph /  5.6 km/h 3.5 mph /  5.6 km/h 63 % 0 in /  0.0 mm
11:31 44.6 °F /  7.0 °C 32.4 °F /  0.2 °C 30.2 in /  1022.9 hPa ENE 4.6 mph /  7.4 km/h 4.6 mph /  7.4 km/h 62 % 0 in /  0.0 mm
11:36 45 °F /  7.2 °C 32.7 °F /  0.4 °C 30.2 in /  1022.9 hPa NNE 4.6 mph /  7.4 km/h 4.6 mph /  7.4 km/h 62 % 0 in /  0.0 mm
11:41 45.5 °F /  7.5 °C 33.3 °F /  0.7 °C 30.2 in /  1022.9 hPa North 3.5 mph /  5.6 km/h 3.5 mph /  5.6 km/h 62 % 0 in /  0.0 mm
11:46 45.7 °F /  7.6 °C 33.4 °F /  0.8 °C 30.2 in /  1022.9 hPa NE 3.3 mph /  5.3 km/h 3.3 mph /  5.3 km/h 62 % 0 in /  0.0 mm
11:51 46.2 °F /  7.9 °C 34 °F /  1.1 °C 30.2 in /  1022.9 hPa ESE 2.3 mph /  3.7 km/h 2.3 mph /  3.7 km/h 62 % 0 in /  0.0 mm
11:56 46.4 °F /  8.0 °C 33.6 °F /  0.9 °C 30.2 in /  1022.9 hPa NNE 4.6 mph /  7.4 km/h 4.6 mph /  7.4 km/h 61 % 0 in /  0.0 mm
12:01 46 °F /  7.8 °C 33.3 °F /  0.7 °C 30.2 in /  1021.9 hPa ENE 5.8 mph /  9.3 km/h 5.8 mph /  9.3 km/h 61 % 0 in /  0.0 mm
12:06 46.6 °F /  8.1 °C 33.8 °F /  1.0 °C 30.2 in /  1021.9 hPa NE 4.3 mph /  6.9 km/h 4.3 mph /  6.9 km/h 61 % 0 in /  0.0 mm
12:11 46.6 °F /  8.1 °C 33.8 °F /  1.0 °C 30.2 in /  1021.9 hPa NNE 5.8 mph /  9.3 km/h 5.8 mph /  9.3 km/h 61 % 0 in /  0.0 mm
12:16 46.9 °F /  8.3 °C 33.8 °F /  1.0 °C 30.2 in /  1021.9 hPa WNW 3.5 mph /  5.6 km/h 3.5 mph /  5.6 km/h 60 % 0 in /  0.0 mm
12:21 47.3 °F /  8.5 °C 34.2 °F /  1.2 °C 30.2 in /  1021.9 hPa ENE 3.6 mph /  5.8 km/h 3.6 mph /  5.8 km/h 60 % 0 in /  0.0 mm
12:26 47.5 °F /  8.6 °C 34.3 °F /  1.3 °C 30.2 in /  1021.9 hPa ENE 3.3 mph /  5.3 km/h 3.3 mph /  5.3 km/h 60 % 0 in /  0.0 mm
12:31 47.5 °F /  8.6 °C 34 °F /  1.1 °C 30.2 in /  1021.9 hPa NNE 3.5 mph /  5.6 km/h 3.5 mph /  5.6 km/h 59 % 0 in /  0.0 mm
12:36 47.8 °F /  8.8 °C 34.2 °F /  1.2 °C 30.2 in /  1021.9 hPa NE 4.6 mph /  7.4 km/h 4.6 mph /  7.4 km/h 59 % 0 in /  0.0 mm
12:41 48 °F /  8.9 °C 34.3 °F /  1.3 °C 30.2 in /  1021.9 hPa NNE 4 mph /  6.4 km/h 4 mph /  6.4 km/h 59 % 0 in /  0.0 mm
12:46 48.2 °F /  9.0 °C 34.2 °F /  1.2 °C 30.2 in /  1021.9 hPa North 4.3 mph /  6.9 km/h 4.3 mph /  6.9 km/h 58 % 0 in /  0.0 mm
12:51 48.4 °F /  9.1 °C 34.3 °F /  1.3 °C 30.2 in /  1021.9 hPa NNE 3.5 mph /  5.6 km/h 3.5 mph /  5.6 km/h 58 % 0 in /  0.0 mm
12:56 48.7 °F /  9.3 °C 34.5 °F /  1.4 °C 30.2 in /  1021.9 hPa NNE 2.3 mph /  3.7 km/h 2.3 mph /  3.7 km/h 58 % 0 in /  0.0 mm
13:01 49.3 °F /  9.6 °C 35.1 °F /  1.7 °C 30.2 in /  1021.9 hPa NNE 2.4 mph /  3.9 km/h 2.4 mph /  3.9 km/h 58 % 0 in /  0.0 mm
13:06 48.9 °F /  9.4 °C 34.3 °F /  1.3 °C 30.2 in /  1021.9 hPa ENE 4.6 mph /  7.4 km/h 4.6 mph /  7.4 km/h 57 % 0 in /  0.0 mm
13:11 48.7 °F /  9.3 °C 33.6 °F /  0.9 °C 30.2 in /  1021.9 hPa ENE 4.6 mph /  7.4 km/h 4.6 mph /  7.4 km/h 56 % 0 in /  0.0 mm
13:16 49.1 °F /  9.5 °C 34.5 °F /  1.4 °C 30.2 in /  1021.9 hPa ENE 2.3 mph /  3.7 km/h 2.3 mph /  3.7 km/h 57 % 0 in /  0.0 mm
13:21 49.6 °F /  9.8 °C 35.1 °F /  1.7 °C 30.2 in /  1021.9 hPa ENE 3.5 mph /  5.6 km/h 3.5 mph /  5.6 km/h 57 % 0 in /  0.0 mm
13:26 49.8 °F /  9.9 °C 34.7 °F /  1.5 °C 30.2 in /  1021.9 hPa ENE 2.3 mph /  3.7 km/h 2.3 mph /  3.7 km/h 56 % 0 in /  0.0 mm
13:31 50.2 °F /  10.1 °C 35.1 °F /  1.7 °C 30.2 in /  1021.9 hPa ENE 1.2 mph /  1.9 km/h   56 % 0 in /  0.0 mm
13:36 50 °F /  10.0 °C 34.5 °F /  1.4 °C 30.2 in /  1021.9 hPa ESE 4.6 mph /  7.4 km/h 4.6 mph /  7.4 km/h 55 % 0 in /  0.0 mm
13:41 49.6 °F /  9.8 °C 34.2 °F /  1.2 °C 30.2 in /  1021.9 hPa ESE 3.5 mph /  5.6 km/h 3.5 mph /  5.6 km/h 55 % 0 in /  0.0 mm
13:51 49.6 °F /  9.8 °C 34.2 °F /  1.2 °C 30.2 in /  1021.9 hPa ESE 3.3 mph /  5.3 km/h 3.3 mph /  5.3 km/h 55 % 0 in /  0.0 mm
13:56 49.6 °F /  9.8 °C 34.2 °F /  1.2 °C 30.2 in /  1021.9 hPa ENE 2.3 mph /  3.7 km/h 2.3 mph /  3.7 km/h 55 % 0 in /  0.0 mm
14:00 44.8 °F /  7.1 °C 30.9 °F /  -0.6 °C 30.1 in /  1018.8 hPa Calm     58 % 0 in /  0.0 mm
14:01 50 °F /  10.0 °C 34.5 °F /  1.4 °C 30.2 in /  1021.9 hPa NE 2.4 mph /  3.9 km/h 2.6 mph /  4.2 km/h 55 % 0 in /  0.0 mm
14:06 49.8 °F /  9.9 °C 34.3 °F /  1.3 °C 30.2 in /  1021.9 hPa SE 4.6 mph /  7.4 km/h 4.6 mph /  7.4 km/h 55 % 0 in /  0.0 mm
14:10 44.6 °F /  7.0 °C 30.7 °F /  -0.7 °C 30.1 in /  1019.9 hPa Calm     58 % 0 in /  0.0 mm
14:14 50 °F /  10.0 °C 34 °F /  1.1 °C 30.2 in /  1020.9 hPa ESE 4.6 mph /  7.4 km/h 4.6 mph /  7.4 km/h 54 % 0 in /  0.0 mm
14:29 50.4 °F /  10.2 °C 34.3 °F /  1.3 °C 30.2 in /  1020.9 hPa East 4.6 mph /  7.4 km/h 4.6 mph /  7.4 km/h 54 % 0 in /  0.0 mm
14:30 43.7 °F /  6.5 °C 30.4 °F /  -0.9 °C 30.1 in /  1018.8 hPa NNE 1 mph /  1.6 km/h 2 mph /  3.2 km/h 59 % 0 in /  0.0 mm
14:44 51.4 °F /  10.8 °C 34.9 °F /  1.6 °C 30.2 in /  1020.9 hPa SSE 3.5 mph /  5.6 km/h 3.5 mph /  5.6 km/h 53 % 0 in /  0.0 mm
14:49 51.8 °F /  11.0 °C 35.2 °F /  1.8 °C 30.2 in /  1020.9 hPa SSE 4.6 mph /  7.4 km/h 4.6 mph /  7.4 km/h 53 % 0 in /  0.0 mm
14:50 43 °F /  6.1 °C 29.7 °F /  -1.3 °C 30.1 in /  1019.9 hPa NNW 1 mph /  1.6 km/h 2 mph /  3.2 km/h 59 % 0 in /  0.0 mm
14:59 52 °F /  11.1 °C 35.4 °F /  1.9 °C 30.1 in /  1019.9 hPa SE 4.6 mph /  7.4 km/h 4.6 mph /  7.4 km/h 53 % 0 in /  0.0 mm
15:00 42.4 °F /  5.8 °C 29.5 °F /  -1.4 °C 30.1 in /  1019.9 hPa Calm   2 mph /  3.2 km/h 60 % 0 in /  0.0 mm
15:10 42.1 °F /  5.6 °C 29.7 °F /  -1.3 °C 30.1 in /  1019.9 hPa Calm     61 % 0 in /  0.0 mm
15:14 51.6 °F /  10.9 °C 35.1 °F /  1.7 °C 30.2 in /  1020.9 hPa SE 5.8 mph /  9.3 km/h 5.8 mph /  9.3 km/h 53 % 0 in /  0.0 mm
15:19 51.1 °F /  10.6 °C 34.5 °F /  1.4 °C 30.2 in /  1020.9 hPa East 8.1 mph /  13.0 km/h 8.1 mph /  13.0 km/h 53 % 0 in /  0.0 mm
15:20 42.1 °F /  5.6 °C 29.7 °F /  -1.3 °C 30.1 in /  1019.9 hPa West 1 mph /  1.6 km/h 1 mph /  1.6 km/h 61 % 0 in /  0.0 mm
15:24 50.7 °F /  10.4 °C 34.2 °F /  1.2 °C 30.2 in /  1020.9 hPa ESE 8.1 mph /  13.0 km/h 8.1 mph /  13.0 km/h 53 % 0 in /  0.0 mm
15:29 50.5 °F /  10.3 °C 34.5 °F /  1.4 °C 30.2 in /  1020.9 hPa ESE 5.8 mph /  9.3 km/h 5.8 mph /  9.3 km/h 54 % 0 in /  0.0 mm
15:30 42.1 °F /  5.6 °C 30 °F /  -1.1 °C 30.1 in /  1019.9 hPa Calm   1 mph /  1.6 km/h 62 % 0 in /  0.0 mm
15:34 50.4 °F /  10.2 °C 34.3 °F /  1.3 °C 30.2 in /  1020.9 hPa ESE 5.8 mph /  9.3 km/h 5.8 mph /  9.3 km/h 54 % 0 in /  0.0 mm
15:39 50.4 °F /  10.2 °C 34.3 °F /  1.3 °C 30.2 in /  1020.9 hPa East 4.6 mph /  7.4 km/h 4.6 mph /  7.4 km/h 54 % 0 in /  0.0 mm
15:40 42.3 °F /  5.7 °C 30.2 °F /  -1.0 °C 30.1 in /  1019.9 hPa WSW 1 mph /  1.6 km/h 2 mph /  3.2 km/h 62 % 0 in /  0.0 mm
15:44 50.5 °F /  10.3 °C 34.5 °F /  1.4 °C 30.2 in /  1020.9 hPa East 2.6 mph /  4.2 km/h 2.9 mph /  4.7 km/h 54 % 0 in /  0.0 mm
15:49 50.5 °F /  10.3 °C 34.5 °F /  1.4 °C 30.2 in /  1020.9 hPa NNE 3.5 mph /  5.6 km/h 3.5 mph /  5.6 km/h 54 % 0 in /  0.0 mm
15:50 42.4 °F /  5.8 °C 30.4 °F /  -0.9 °C 30.1 in /  1019.9 hPa SW 1 mph /  1.6 km/h 2 mph /  3.2 km/h 62 % 0 in /  0.0 mm
15:54 50.7 °F /  10.4 °C 35.1 °F /  1.7 °C 30.2 in /  1020.9 hPa ENE 3.5 mph /  5.6 km/h 3.5 mph /  5.6 km/h 55 % 0 in /  0.0 mm
15:59 50.4 °F /  10.2 °C 34.9 °F /  1.6 °C 30.2 in /  1020.9 hPa ESE 3.5 mph /  5.6 km/h 3.5 mph /  5.6 km/h 55 % 0 in /  0.0 mm
16:00 42.6 °F /  5.9 °C 30.6 °F /  -0.8 °C 30.1 in /  1019.9 hPa Calm   2 mph /  3.2 km/h 62 % 0 in /  0.0 mm
16:04 50.5 °F /  10.3 °C 35.4 °F /  1.9 °C 30.2 in /  1020.9 hPa ENE 2.3 mph /  3.7 km/h 2.3 mph /  3.7 km/h 56 % 0 in /  0.0 mm
16:09 50.5 °F /  10.3 °C 35.4 °F /  1.9 °C 30.2 in /  1020.9 hPa ENE 3.5 mph /  5.6 km/h 3.5 mph /  5.6 km/h 56 % 0 in /  0.0 mm
16:10 42.6 °F /  5.9 °C 30.9 °F /  -0.6 °C 30.1 in /  1019.9 hPa Calm     63 % 0 in /  0.0 mm
16:14 50.7 °F /  10.4 °C 35.6 °F /  2.0 °C 30.2 in /  1020.9 hPa ENE 2.3 mph /  3.7 km/h 2.3 mph /  3.7 km/h 56 % 0 in /  0.0 mm
16:19 50.7 °F /  10.4 °C 35.1 °F /  1.7 °C 30.2 in /  1020.9 hPa ESE 3.5 mph /  5.6 km/h 3.5 mph /  5.6 km/h 55 % 0 in /  0.0 mm
16:20 42.6 °F /  5.9 °C 30.9 °F /  -0.6 °C 30.1 in /  1019.9 hPa Calm   1 mph /  1.6 km/h 63 % 0 in /  0.0 mm
16:24 50.7 °F /  10.4 °C 35.1 °F /  1.7 °C 30.2 in /  1020.9 hPa ENE 2.3 mph /  3.7 km/h 2.3 mph /  3.7 km/h 55 % 0 in /  0.0 mm
16:34 50.9 °F /  10.5 °C 35.2 °F /  1.8 °C 30.1 in /  1019.9 hPa NE 2.3 mph /  3.7 km/h 2.3 mph /  3.7 km/h 55 % 0 in /  0.0 mm
16:39 50.9 °F /  10.5 °C 35.2 °F /  1.8 °C 30.1 in /  1019.9 hPa East 2 mph /  3.2 km/h 2 mph /  3.2 km/h 55 % 0 in /  0.0 mm
16:44 50.7 °F /  10.4 °C 35.6 °F /  2.0 °C 30.2 in /  1020.9 hPa NNE 2.3 mph /  3.7 km/h 2.3 mph /  3.7 km/h 56 % 0 in /  0.0 mm
16:49 50.7 °F /  10.4 °C 35.6 °F /  2.0 °C 30.2 in /  1020.9 hPa NE 3.1 mph /  5.0 km/h 3.1 mph /  5.0 km/h 56 % 0 in /  0.0 mm
16:54 50.5 °F /  10.3 °C 35.4 °F /  1.9 °C 30.2 in /  1020.9 hPa NE 2.6 mph /  4.2 km/h 2.6 mph /  4.2 km/h 56 % 0 in /  0.0 mm
16:59 50.4 °F /  10.2 °C 35.2 °F /  1.8 °C 30.2 in /  1020.9 hPa ENE 2.3 mph /  3.7 km/h 2.3 mph /  3.7 km/h 56 % 0 in /  0.0 mm
17:04 50.2 °F /  10.1 °C 35.1 °F /  1.7 °C 30.2 in /  1020.9 hPa ENE 1.2 mph /  1.9 km/h   56 % 0 in /  0.0 mm
17:14 50 °F /  10.0 °C 35.4 °F /  1.9 °C 30.1 in /  1019.9 hPa WSW 2.3 mph /  3.7 km/h 2.3 mph /  3.7 km/h 57 % 0 in /  0.0 mm
17:19 49.8 °F /  9.9 °C 35.2 °F /  1.8 °C 30.1 in /  1019.9 hPa West 2.3 mph /  3.7 km/h 2.3 mph /  3.7 km/h 57 % 0 in /  0.0 mm
17:24 49.5 °F /  9.7 °C 34.9 °F /  1.6 °C 30.1 in /  1019.9 hPa West 1.2 mph /  1.9 km/h 1.2 mph /  1.9 km/h 57 % 0 in /  0.0 mm
17:29 49.1 °F /  9.5 °C 34.5 °F /  1.4 °C 30.2 in /  1020.9 hPa SW 1.2 mph /  1.9 km/h 1.2 mph /  1.9 km/h 57 % 0 in /  0.0 mm
17:34 48.7 °F /  9.3 °C 34.2 °F /  1.2 °C 30.2 in /  1020.9 hPa SW 1.4 mph /  2.3 km/h   57 % 0 in /  0.0 mm
17:39 48.6 °F /  9.2 °C 34 °F /  1.1 °C 30.2 in /  1020.9 hPa Calm     57 % 0 in /  0.0 mm
17:49 48.2 °F /  9.0 °C 33.6 °F /  0.9 °C 30.1 in /  1019.9 hPa WSW 1.2 mph /  1.9 km/h   57 % 0 in /  0.0 mm
17:59 47.7 °F /  8.7 °C 32.7 °F /  0.4 °C 30.1 in /  1019.9 hPa WSW 1.2 mph /  1.9 km/h 1.2 mph /  1.9 km/h 56 % 0 in /  0.0 mm
18:04 47.3 °F /  8.5 °C 32.4 °F /  0.2 °C 30.1 in /  1019.9 hPa SW 1.6 mph /  2.6 km/h 1.6 mph /  2.6 km/h 56 % 0 in /  0.0 mm
18:09 47.1 °F /  8.4 °C 32.2 °F /  0.1 °C 30.1 in /  1019.9 hPa SW 1.2 mph /  1.9 km/h 1.2 mph /  1.9 km/h 56 % 0 in /  0.0 mm
18:14 46.8 °F /  8.2 °C 32.4 °F /  0.2 °C 30.1 in /  1019.9 hPa Calm     57 % 0 in /  0.0 mm
18:20 46.6 °F /  8.1 °C 32.2 °F /  0.1 °C 30.1 in /  1019.9 hPa SW 1.2 mph /  1.9 km/h 1.4 mph /  2.3 km/h 57 % 0 in /  0.0 mm
18:25 46.4 °F /  8.0 °C 32 °F /  0.0 °C 30.1 in /  1019.9 hPa WSW 1.6 mph /  2.6 km/h   57 % 0 in /  0.0 mm
18:30 46.4 °F /  8.0 °C 32 °F /  0.0 °C 30.1 in /  1019.9 hPa WSW 2.3 mph /  3.7 km/h 2.3 mph /  3.7 km/h 57 % 0 in /  0.0 mm
18:35 46.2 °F /  7.9 °C 31.8 °F /  -0.1 °C 30.1 in /  1019.9 hPa WSW 1.2 mph /  1.9 km/h   57 % 0 in /  0.0 mm
18:45 45.7 °F /  7.6 °C 31.3 °F /  -0.4 °C 30.1 in /  1018.8 hPa WSW 0.9 mph /  1.4 km/h   57 % 0 in /  0.0 mm
18:50 45.7 °F /  7.6 °C 31.3 °F /  -0.4 °C 30.1 in /  1018.8 hPa SW 2.3 mph /  3.7 km/h 2.3 mph /  3.7 km/h 57 % 0 in /  0.0 mm
18:55 45.7 °F /  7.6 °C 31.3 °F /  -0.4 °C 30.1 in /  1018.8 hPa WSW 1.2 mph /  1.9 km/h 1.2 mph /  1.9 km/h 57 % 0 in /  0.0 mm
19:00 45.5 °F /  7.5 °C 31.6 °F /  -0.2 °C 30.1 in /  1019.9 hPa SW 1.2 mph /  1.9 km/h 1.2 mph /  1.9 km/h 58 % 0 in /  0.0 mm
19:05 45.5 °F /  7.5 °C 31.6 °F /  -0.2 °C 30.1 in /  1019.9 hPa SW 1.2 mph /  1.9 km/h 1.2 mph /  1.9 km/h 58 % 0 in /  0.0 mm
19:10 45.3 °F /  7.4 °C 31.5 °F /  -0.3 °C 30.1 in /  1019.9 hPa WSW 2.3 mph /  3.7 km/h 2.3 mph /  3.7 km/h 58 % 0 in /  0.0 mm
19:15 45.1 °F /  7.3 °C 31.3 °F /  -0.4 °C 30.1 in /  1019.9 hPa WSW 1.2 mph /  1.9 km/h 1.2 mph /  1.9 km/h 58 % 0 in /  0.0 mm
19:25 45.1 °F /  7.3 °C 31.3 °F /  -0.4 °C 30.1 in /  1019.9 hPa West 2.3 mph /  3.7 km/h 2.3 mph /  3.7 km/h 58 % 0 in /  0.0 mm
19:30 45.1 °F /  7.3 °C 31.3 °F /  -0.4 °C 30.1 in /  1019.9 hPa WSW 2.3 mph /  3.7 km/h 2.3 mph /  3.7 km/h 58 % 0 in /  0.0 mm
19:35 45.3 °F /  7.4 °C 31.5 °F /  -0.3 °C 30.1 in /  1019.9 hPa WSW 1.2 mph /  1.9 km/h 1.2 mph /  1.9 km/h 58 % 0 in /  0.0 mm
19:45 45.1 °F /  7.3 °C 31.3 °F /  -0.4 °C 30.1 in /  1018.8 hPa WSW 1.2 mph /  1.9 km/h   58 % 0 in /  0.0 mm
19:50 45.1 °F /  7.3 °C 31.3 °F /  -0.4 °C 30.1 in /  1018.8 hPa WSW 1.2 mph /  1.9 km/h   58 % 0 in /  0.0 mm
22:29 42.6 °F /  5.9 °C 31.3 °F /  -0.4 °C 30.1 in /  1019.9 hPa NNE 1.2 mph /  1.9 km/h   64 % 0 in /  0.0 mm
22:34 42.6 °F /  5.9 °C 31.3 °F /  -0.4 °C 30.1 in /  1019.9 hPa Calm     64 % 0 in /  0.0 mm
22:39 42.6 °F /  5.9 °C 31.3 °F /  -0.4 °C 30.1 in /  1019.9 hPa NE 1.4 mph /  2.3 km/h 1.4 mph /  2.3 km/h 64 % 0 in /  0.0 mm
22:44 42.4 °F /  5.8 °C 31.1 °F /  -0.5 °C 30.1 in /  1019.9 hPa NE 1.4 mph /  2.3 km/h 1.4 mph /  2.3 km/h 64 % 0 in /  0.0 mm
22:49 42.3 °F /  5.7 °C 30.9 °F /  -0.6 °C 30.1 in /  1019.9 hPa NE 1.2 mph /  1.9 km/h 1.2 mph /  1.9 km/h 64 % 0 in /  0.0 mm
22:54 42.3 °F /  5.7 °C 30.9 °F /  -0.6 °C 30.1 in /  1019.9 hPa Calm     64 % 0 in /  0.0 mm
22:59 42.1 °F /  5.6 °C 30.7 °F /  -0.7 °C 30.1 in /  1018.8 hPa Calm     64 % 0 in /  0.0 mm
23:04 42.1 °F /  5.6 °C 30.7 °F /  -0.7 °C 30.1 in /  1018.8 hPa Calm     64 % 0 in /  0.0 mm
23:09 42.1 °F /  5.6 °C 30.7 °F /  -0.7 °C 30.1 in /  1018.8 hPa Calm     64 % 0 in /  0.0 mm
23:14 42.1 °F /  5.6 °C 30.7 °F /  -0.7 °C 30.1 in /  1019.9 hPa Calm     64 % 0 in /  0.0 mm
23:29 41.9 °F /  5.5 °C 30.6 °F /  -0.8 °C 30.1 in /  1018.8 hPa ENE 2.3 mph /  3.7 km/h 2.3 mph /  3.7 km/h 64 % 0 in /  0.0 mm
23:34 41.9 °F /  5.5 °C 30.6 °F /  -0.8 °C 30.1 in /  1018.8 hPa Calm     64 % 0 in /  0.0 mm
23:39 41.7 °F /  5.4 °C 30.4 °F /  -0.9 °C 30.1 in /  1018.8 hPa Calm     64 % 0 in /  0.0 mm
23:44 41.7 °F /  5.4 °C 30.4 °F /  -0.9 °C 30.1 in /  1018.8 hPa WSW 1.2 mph /  1.9 km/h   64 % 0 in /  0.0 mm
23:49 41.5 °F /  5.3 °C 30.4 °F /  -0.9 °C 30.1 in /  1018.8 hPa WSW 1.4 mph /  2.3 km/h 1.4 mph /  2.3 km/h 64 % 0 in /  0.0 mm
23:54 41.5 °F /  5.3 °C 30.4 °F /  -0.9 °C 30.1 in /  1018.8 hPa WSW 2.3 mph /  3.7 km/h 2.3 mph /  3.7 km/h 64 % 0 in /  0.0 mm
23:59 41.5 °F /  5.3 °C 30.4 °F /  -0.9 °C 30.1 in /  1018.8 hPa SW 1.2 mph /  1.9 km/h   64 % 0 in /  0.0 mm
Meteo Sesrovires
Elogis d' Weather Underground - 3.25 mb

Guio original per  Jim McMurry - jmcmurry@mwt.net Adaptat per a la plantilla per  Wim van der Kuil - Leuven-Template.eu

Trobareu la nostra informacio del temps tambe a:

Weather Underground

AWEKAS